Weather at Van Nuys Airport

Public forecast

Using degrees Fahrenheit for public forecast. Weather courtesy of forecast.io.

Current aviation weather report (METAR) for Van Nuys Airport

Retrieved 2020/10/23 00:51 UTC (1 hour ago):

KVNY 230051Z 17006KT 10SM CLR 21/13 A2987 RMK AO2 SLP109 T02060128

Aviation forecast (TAF) for Van Nuys Airport

Retrieved 2020-10-23 00:36 UTC (1 hour ago):

TAF KVNY 222335Z 2300/2324 16006KT P6SM SCT030 FM230300 VRB03KT P6SM OVC020 FM231400 VRB03KT P6SM OVC035 FM232100 16008KT P6SM OVC040